Urb Radioville, Puerto Rico
Current Conditions -  °F | °C
As of 8:50 PM on Tuesday 21 Oct 2014 (Local Time) from TJBQ Reporting Station
Light Rain Light Rain  
Wind Chill: 75°   Ceiling: 4800
Heat Index: 75°   Visibility: 10mi
Dew Point: 73°   Wind: 3mph
Humidity: 94%   Direction: 170°S
Pressure: 29.97"   Gusts: NA
Location:  18.4739°N, 66.7295°W
Report Text: TJBQ 220050Z COR 17003KT 10SM -RA SCT031 BKN048 OVC070 24/23 A2997 RMK RWY08 ATIS F
Loading
Personal Weather Stations






























Interactive Weather Map
Tropical Storm Tracking
New forecast layout! Learn more

10-Day Weather Forecast

Advertisements
Track Severe Weather on mobile